Florida Pigeon Derby - Inventory

Station: Inventory - 4 Race

Distance: 10 Miles    

Release: 06-Dec-2018 06:30

Weather Release:    Arrival:

Wind at Release:     Wind at Arrival:

Temp at Release: °    Temp at Arrival: °

Lofts: 163

Birds: 792

Clocked: 670

Good Luck to Everyone!
Drops Pos Breeder Pigeon Name Color Sex Ent Arrival Speed To Win Eligible
1 Pety Loft - FL 0060-AU18-PETY BC H 1 08:34:37.30 141.227 00:00:00 Yes
2 Yandy Gil Loft - FL 0420-AU18-HRPC BB C 1 10:31:20.20 72.927 01:56:43 Yes
3 Jfa - FL 5358-AU18-JEDD BC H 1 10:31:20.70 72.925 01:56:43 Yes
4 Remedio Brand - FL 4863-AU18-SCHE BB H 1 10:31:21.10 72.923 01:56:44 Yes
4 Fuentes Loft - FL 38158-IF18-E BB H 1 10:31:21.10 72.923 01:56:44 Yes
6 Yasel & Jugo Loft - FL 4448-AU18-HRPC BB H 1 10:31:21.80 72.919 01:56:44 Yes
6 C & K Loft - FL 1006-AU18-KENN BB C 1 10:31:21.90 72.919 01:56:44 Yes
8 Carlito El Animal Loft - FL 30604-AU18-ARPU BC H 1 10:31:22.20 72.917 01:56:45 Yes
8 Siguaraya & El Rey De Los Cielos - FL 29115-AU18-ARPU Blue Wolf BB C 1 10:31:22.30 72.917 01:56:45 Yes
8 Lian Loft - FL 2997-AU18-HRPC BB H 1 10:31:22.30 72.917 01:56:45 Yes
11 Jimmy Zheng Loft - MS 0079-AU18-JIMM BC H 1 10:31:22.60 72.915 01:56:45 Yes
11 Abigail Loft - FL 0740-AU18-HRPC BC H 1 10:31:22.70 72.915 01:56:45 Yes
13 Fiallo Loft - FL 0160-AU18-RIVE BC H 1 10:31:23.20 72.912 01:56:46 Yes
14 Los 4 Loft - FL 1075-AU18-GHC BB H 1 10:31:23.50 72.911 01:56:46 Yes
15 Dylan Loft - FL 1231-AU18-HRPC BC H 1 10:31:23.80 72.909 01:56:46 Yes
15 Batista-Toledo - FL 0150-AU18-ABAT BBWF H 1 10:31:23.90 72.909 01:56:46 Yes
17 Dan Mclaughlin Lofts - MA 2314-AU18-MCLA BB H 1 10:31:24.40 72.906 01:56:47 Yes
17 M & Y Connection - MI 0101-AU18-MSYP "The Last of my kind" SPLA H 1 10:31:24.40 72.906 01:56:47 Yes
17 Isla Loft - FL 6894-AU18-JEDD 301 x 30009 BB C 1 10:31:24.40 72.906 01:56:47 Yes
17 Lazy A C Loft - IN 0316-AU18-LAZY BB H 1 10:31:24.50 72.906 01:56:47 Yes
21 Tigre Loft2 - WI 0283-AU18-TIGR Felicia BB H 1 10:31:24.70 72.905 01:56:47 Yes
22 R F L - FL 2694-AU18-VITA London BBWF H 1 10:31:25.20 72.902 01:56:48 Yes
23 Flyhome Loft - CA 1881-AU18-FLYH BB H 1 10:31:25.60 72.900 01:56:48 Yes
24 Ej2 Loft - FL 37574-IF18-E BB H 1 10:31:26.00 72.898 01:56:49 Yes
25 Fuentes Loft - FL 38159-IF18-E BB C 2 10:31:26.50 72.895 01:56:49 Yes
25 Yandy Gil Duque - FL 27395-AU18-ARPU BC H 1 10:31:26.50 72.895 01:56:49 Yes
27 H Q Z Loft - NC 0087-AU18-HQZ BC H 1 10:31:26.80 72.894 01:56:49 Yes
28 Méndez Shalom - FL 18105-AU18-ARPU BC C 1 10:31:27.20 72.892 01:56:50 Yes
29 Western Loft - CA 1085-AU18-JQT BB H 1 10:31:28.50 72.885 01:56:51 Yes
30 Adc Loft - VA 7967-IF18-FOYS BC H 1 10:31:28.80 72.884 01:56:51 Yes
31 Missiles Castro - AZ 6124-AU18-MISS SPLA H 1 10:31:30.90 72.873 01:56:54 Yes
32 Carlito El Animal Loft - FL 0153-AU18-SCHE BB H 2 10:31:31.40 72.871 01:56:54 Yes
33 Siguaraya & El Rey De Los Cielos - FL 29113-AU18-ARPU Wasp DC C 2 10:31:31.50 72.870 01:56:54 Yes
34 Skyline Loft 2 - FL 0464-AU18-SKYL BB H 1 10:31:38.30 72.836 01:57:01 Yes
35 Abc Loft - FL 4909-AU18-SCHE BC H 1 10:31:40.00 72.828 01:57:03 Yes
36 Yosvany & Roby Loft - FL 0587-AU18-ORL BBWF H 1 10:38:09.70 70.922 02:03:32 Yes
37 Fuentes Loft - FL 38153-IF18-E BB C 3 10:38:10.10 70.920 02:03:33 Yes
38 Sergio Ferrer Loft - FL 2006-AU18-HRPC BB H 1 10:38:13.70 70.902 02:03:36 Yes
39 Guerra-Idalberto Loft - FL 2451-AU18-SCHE BB C 1 10:38:14.60 70.898 02:03:37 Yes
40 Yandy-Yoe & Oscar - FL 72979-AU18-ARPU BC C 1 10:38:15.00 70.896 02:03:38 Yes
41 Lucky Star Loft - FL 1949-AU18-SCHE BB H 1 10:38:15.30 70.895 02:03:38 Yes
42 La Gloria Loft - FL 5998-AU18-JEDD BB C 1 10:38:15.40 70.894 02:03:38 Yes
43 Remedio Brand - FL 4882-AU18-SCHE BC H 2 10:38:15.90 70.892 02:03:39 Yes
43 Ej2 Loft - FL 37573-IF18-E BBWF H 2 10:38:15.90 70.892 02:03:39 Yes
45 The Cuban Missile Loft - MN 0186-AU18-NAPL Maikelin BBWF H 1 10:38:16.30 70.890 02:03:39 Yes
46 Mya Loft - FL 0302-AU18-SKYL BBWF C 1 10:38:16.70 70.888 02:03:39 Yes
47 Remedio Brand - FL 4881-AU18-SCHE BB C 3 10:38:17.20 70.886 02:03:40 Yes
48 Cmm Loft - FL 1087-AU18-HRPC BB H 1 10:38:17.60 70.884 02:03:40 Yes
48 Y Mtn Loft - TN 0339-AU18-TFC BB C 1 10:38:17.60 70.884 02:03:40 Yes
50 Jfa - FL 5852-AU18-JEDD BB H 2 10:38:18.30 70.881 02:03:41 Yes
51 Lucky Star Loft - FL 1937-AU18-SCHE BB H 2 10:38:18.80 70.878 02:03:42 Yes
51 Negro - FL 0670-AU18-FMI BB C 1 10:38:18.80 70.878 02:03:42 Yes
53 A P C Loft - TX 18156-AU18-APC BB H 1 10:38:19.20 70.876 02:03:42 Yes
54 Tornillo - FL 0125-AU18-HRPC Piedrafina BB C 1 10:38:19.50 70.875 02:03:42 Yes
55 Tornillo - FL 41752-IF18-E Yahoo BCWF C 2 10:38:20.90 70.868 02:03:44 Yes
56 ! ! ! S P E E D S - R A C E R S ! ! ! - FL 2031-AU18-SCHE SUNNY GOLD BB H 1 10:38:21.80 70.864 02:03:44 Yes
57 Valdes & Rudy Loft - FL 1704-AU18-SCHE LA BOBITA BC H 1 10:38:23.70 70.855 02:03:46 Yes
58 Abeja Loft - FL 4794-AU18-JEDD BB H 1 10:38:24.60 70.851 02:03:47 Yes
59 Mya Loft - FL 0306-AU18-SKYL BB H 2 10:38:25.10 70.848 02:03:48 Yes
59 Yandy Gil Loft - FL 0129-AU18-SCHE BB H 2 10:38:25.10 70.848 02:03:48 Yes
61 Gibara Loft - FL 2633-AU18-HRPC CHOC H 1 10:38:25.50 70.846 02:03:48 Yes
62 3 Hermanos Loft - FL 0018-AU18-3HER BC H 1 10:38:27.50 70.837 02:03:50 Yes
63 Erick Loft - FL 0864-AU18-HRPC BB H 1 10:38:28.50 70.832 02:03:51 Yes
64 Tornillo - FL 0105-AU18-HRPC BAGHDAD BC C 3 10:38:30.20 70.824 02:03:53 Yes
65 Tornillo - FL 0143-AU18-HRPC Abeja BB H 4 10:38:30.50 70.823 02:03:53 Yes
66 Yandy Gil Loft - FL 0118-AU18-SCHE BBWF H 3 10:38:31.10 70.820 02:03:54 Yes
67 Nicolas Loft - FL 0213-AU18-FMI BB C 1 10:38:31.40 70.818 02:03:54 Yes
68 Querol Loft - FL 0314-AU18-PB BC C 1 10:38:31.70 70.817 02:03:54 Yes
69 Kiko Loft - FL 4093-AU18-VL59 DC C 1 10:38:32.10 70.815 02:03:55 Yes
70 Kiko Loft - FL 4033-AU18-SCHE BB C 2 10:38:32.70 70.812 02:03:55 Yes
71 Carlito El Animal Loft - FL 0156-AU18-SCHE BC H 3 10:38:33.20 70.810 02:03:56 Yes
72 H Q Z Loft - NC 0074-AU18-HQZ BC H 2 10:38:33.50 70.808 02:03:56 Yes
73 Tnt Loft - FL 0739-AU18-HRPC BB H 1 10:38:34.20 70.805 02:03:57 Yes
73 Yandy Gil Duque - FL 0406-AU18-HRPC BB H 2 10:38:34.20 70.805 02:03:57 Yes
75 Quemado And Torres Loft - FL 4542-AU18-SCHE BC H 1 10:38:35.30 70.800 02:03:58 Yes
76 G M Loft - CA 38995-AU18-JEDD GMCHOCO 95 CHOC H 1 10:38:35.60 70.798 02:03:58 Yes
76 Blessing Loft - FL 0675-AU18-BLES BB H 1 10:38:35.70 70.798 02:03:58 Yes
78 Abel & Tuti Loft - FL 2227-AU18-HOLG BB H 1 10:38:36.00 70.796 02:03:59 Yes
78 Tian Loft - FL 26903-AU18-ARPU BB H 1 10:38:36.10 70.796 02:03:59 Yes
80 Nicolas Loft - FL 12290-AU18-JEDD SPLA C 2 10:38:36.50 70.794 02:03:59 Yes
81 Rob & Gene - MA 0394-AU18-NJF BB H 1 10:38:36.90 70.792 02:04:00 Yes
81 Peru Loft 2 - FL 3393-AU18-HRPC CHOC H 1 10:38:36.90 70.792 02:04:00 Yes
81 Abel & Tuti Loft - FL 1029-AU18-HRPC BC H 2 10:38:37.00 70.792 02:04:00 Yes
81 Tnt Loft - FL 0727-AU18-HRPC BB C 2 10:38:37.00 70.792 02:04:00 Yes
81 Carlito El Animal Loft - FL 0154-AU18-SCHE BC H 4 10:38:37.00 70.792 02:04:00 Yes
86 Querol Loft - FL 0316-AU18-PB DC H 2 10:38:37.40 70.790 02:04:00 Yes
87 Li Qing Ni Loft - NY 4571-AU18-ARPU BB H 1 10:38:37.70 70.788 02:04:00 Yes
87 Los 4 Loft - FL 1074-AU18-GHC BB H 2 10:38:37.70 70.788 02:04:00 Yes
89 Atlantis Loft - FL 0757-AU18-ATLA BC H 1 10:38:38.30 70.786 02:04:01 Yes
89 Rivera Holguin Loft - FL 2024-AU18-HRPC BC C 1 10:38:38.30 70.786 02:04:01 Yes
91 Suarez Loft - FL 3244-AU18-HRPC BC H 1 10:38:38.40 70.785 02:04:01 Yes
91 Remedio Brand - FL 4884-AU18-SCHE BB C 4 10:38:38.40 70.785 02:04:01 Yes
93 Querol Loft - FL 0313-AU18-PB BCWF C 3 10:38:38.70 70.784 02:04:01 Yes
94 Abeja Loft - FL 4799-AU18-JEDD GRIZ C 2 10:38:38.80 70.783 02:04:02 Yes
94 Segredo - FL 2029-AU18-NS la barrosa RC H 1 10:38:38.80 70.783 02:04:02 Yes
96 Western Loft - CA 1090-AU18-JQT BB H 2 10:38:39.20 70.781 02:04:02 Yes
97 R F L - FL 6489-AU18-JEDD Dublin BB H 2 10:38:39.80 70.778 02:04:03 Yes
98 Crescendo Loft - NM 2432-AU18-VITA BBWF H 1 10:38:40.10 70.777 02:04:03 Yes
99 Esmeralda & Real Madrid - FL 4731-AU18-HRPC BBWF H 1 10:38:40.40 70.776 02:04:03 Yes
100 Comandante & Sergio Loft - FL 0975-AU18-HRPC BBWF H 1 10:38:40.50 70.775 02:04:03 Yes

There are 792 bird records

Note: These Race Results are unofficial and subject to change until verified by the Race Committee and declared final.